BGA333 EDHI-LFBO
Flight info
| Callsign | BGA333 |
|---|---|
| Flight time | 1h 36m |
| Altitude | 35000 |
| Route | IDEKO N850 XAROL DCT BOMBI DCT GIGET DCT ABUKA DCT KRH DCT NATOR DCT LUTIX DCT BENOT DCT NEMOS DCT NINTU DCT MEBAK DCT REPSI DCT LERGA DCT MINSO DCT NARAK |
| Aircraft | A337/H-SDE3GHIJ2J3J5M1RVWXY/LB2D1 |
Departure
| Time | 2026-04-25 22:34 |
|---|---|
| Airport | Hamburg-Finkenwerder Airport (EDHI) |
Arrival
| Time | 2026-04-26 00:10 |
|---|---|
| Airport | Toulouse-Blagnac Airport (LFBO) |
| Time | Latitude | Longitude | Altitude | Speed | Heading |
|---|---|---|---|---|---|
| 2026-04-25 22:33 | 53.43389 | 9.60662 | 5320 ft | 266 kts | 242° |
| 2026-04-25 22:34 | 53.42309 | 9.58130 | 6046 ft | 267 kts | 242° |
| 2026-04-25 22:34 | 53.41209 | 9.55611 | 6754 ft | 270 kts | 239° |
| 2026-04-25 22:34 | 53.39765 | 9.53478 | 7416 ft | 288 kts | 217° |
| 2026-04-25 22:34 | 53.37807 | 9.52409 | 8053 ft | 304 kts | 196° |
| 2026-04-25 22:35 | 53.35683 | 9.51943 | 8703 ft | 310 kts | 192° |
| 2026-04-25 22:35 | 53.33527 | 9.51573 | 9360 ft | 314 kts | 192° |
| 2026-04-25 22:35 | 53.31340 | 9.51191 | 9987 ft | 318 kts | 193° |
| 2026-04-25 22:35 | 53.29115 | 9.50782 | 10441 ft | 328 kts | 193° |
| 2026-04-25 22:36 | 53.26793 | 9.50336 | 10665 ft | 344 kts | 193° |
| 2026-04-25 22:36 | 53.24368 | 9.49867 | 10971 ft | 356 kts | 192° |
| 2026-04-25 22:36 | 53.21882 | 9.49390 | 11451 ft | 362 kts | 192° |
| 2026-04-25 22:36 | 53.19369 | 9.48909 | 11972 ft | 366 kts | 192° |
| 2026-04-25 22:37 | 53.16824 | 9.48419 | 12505 ft | 370 kts | 192° |
| 2026-04-25 22:37 | 53.14258 | 9.47922 | 13032 ft | 373 kts | 192° |
| 2026-04-25 22:37 | 53.11663 | 9.47420 | 13554 ft | 377 kts | 192° |
| 2026-04-25 22:37 | 53.09048 | 9.46913 | 14063 ft | 381 kts | 192° |
| 2026-04-25 22:38 | 53.06404 | 9.46400 | 14535 ft | 384 kts | 192° |
| 2026-04-25 22:38 | 53.03745 | 9.45886 | 15030 ft | 386 kts | 192° |
| 2026-04-25 22:38 | 53.01072 | 9.45370 | 15512 ft | 388 kts | 192° |
| 2026-04-25 22:38 | 52.98385 | 9.44838 | 15995 ft | 390 kts | 193° |
| 2026-04-25 22:39 | 52.95683 | 9.44274 | 16458 ft | 392 kts | 193° |
| 2026-04-25 22:39 | 52.92970 | 9.43692 | 16916 ft | 395 kts | 193° |
| 2026-04-25 22:39 | 52.90238 | 9.43099 | 17350 ft | 399 kts | 193° |
| 2026-04-25 22:39 | 52.87456 | 9.42492 | 17547 ft | 407 kts | 193° |
| 2026-04-25 22:40 | 52.84639 | 9.41881 | 18027 ft | 409 kts | 193° |
| 2026-04-25 22:40 | 52.81812 | 9.41277 | 18464 ft | 411 kts | 193° |
| 2026-04-25 22:40 | 52.78963 | 9.40670 | 18806 ft | 414 kts | 193° |
| 2026-04-25 22:40 | 52.76133 | 9.40070 | 19150 ft | 417 kts | 193° |
| 2026-04-25 22:41 | 52.73212 | 9.39452 | 19523 ft | 419 kts | 193° |
| 2026-04-25 22:41 | 52.70312 | 9.38840 | 19871 ft | 421 kts | 193° |
| 2026-04-25 22:41 | 52.67440 | 9.38233 | 20215 ft | 423 kts | 193° |
| 2026-04-25 22:41 | 52.64511 | 9.37615 | 20561 ft | 425 kts | 193° |
| 2026-04-25 22:42 | 52.61578 | 9.36968 | 20904 ft | 425 kts | 193° |
| 2026-04-25 22:42 | 52.58651 | 9.36246 | 21274 ft | 426 kts | 194° |
| 2026-04-25 22:42 | 52.55717 | 9.35477 | 21600 ft | 428 kts | 194° |
| 2026-04-25 22:42 | 52.52767 | 9.34685 | 21922 ft | 430 kts | 194° |
| 2026-04-25 22:43 | 52.49805 | 9.33888 | 22236 ft | 432 kts | 194° |
| 2026-04-25 22:43 | 52.46830 | 9.33093 | 22532 ft | 434 kts | 194° |
| 2026-04-25 22:43 | 52.43844 | 9.32302 | 22840 ft | 436 kts | 194° |
| 2026-04-25 22:43 | 52.40843 | 9.31514 | 23154 ft | 438 kts | 194° |
| 2026-04-25 22:44 | 52.37834 | 9.30729 | 23491 ft | 437 kts | 193° |
| 2026-04-25 22:44 | 52.34834 | 9.29951 | 23885 ft | 436 kts | 193° |
| 2026-04-25 22:44 | 52.31832 | 9.29171 | 24119 ft | 438 kts | 193° |
| 2026-04-25 22:44 | 52.28815 | 9.28383 | 24327 ft | 440 kts | 193° |
| 2026-04-25 22:45 | 52.25785 | 9.27592 | 24541 ft | 442 kts | 193° |
| 2026-04-25 22:45 | 52.22738 | 9.26825 | 24785 ft | 444 kts | 192° |
| 2026-04-25 22:45 | 52.19670 | 9.26178 | 25010 ft | 446 kts | 191° |
| 2026-04-25 22:45 | 52.16582 | 9.25609 | 25229 ft | 447 kts | 190° |
| 2026-04-25 22:46 | 52.13501 | 9.25077 | 25626 ft | 441 kts | 190° |
| 2026-04-25 22:46 | 52.10467 | 9.24566 | 26136 ft | 436 kts | 190° |
| 2026-04-25 22:46 | 52.07454 | 9.24051 | 26391 ft | 436 kts | 190° |
| 2026-04-25 22:46 | 52.04437 | 9.23483 | 26599 ft | 437 kts | 192° |
| 2026-04-25 22:47 | 52.01428 | 9.22780 | 26797 ft | 438 kts | 193° |
| 2026-04-25 22:47 | 51.98416 | 9.21995 | 26992 ft | 439 kts | 194° |
| 2026-04-25 22:47 | 51.95403 | 9.21178 | 27198 ft | 440 kts | 194° |
| 2026-04-25 22:47 | 51.92380 | 9.20354 | 27393 ft | 441 kts | 194° |
| 2026-04-25 22:48 | 51.89363 | 9.19541 | 27697 ft | 439 kts | 193° |
| 2026-04-25 22:48 | 51.86349 | 9.18792 | 28149 ft | 433 kts | 192° |
| 2026-04-25 22:48 | 51.83417 | 9.18135 | 28942 ft | 420 kts | 192° |
| 2026-04-25 22:48 | 51.80549 | 9.17523 | 29512 ft | 412 kts | 192° |
| 2026-04-25 22:49 | 51.77713 | 9.16924 | 29848 ft | 410 kts | 192° |
| 2026-04-25 22:49 | 51.75840 | 9.16527 | 30009 ft | 410 kts | 192° |
| 2026-04-25 22:49 | 51.73011 | 9.15924 | 30264 ft | 410 kts | 192° |
| 2026-04-25 22:49 | 51.70183 | 9.15316 | 30477 ft | 410 kts | 192° |
| 2026-04-25 22:50 | 51.67359 | 9.14707 | 30671 ft | 409 kts | 191° |
| 2026-04-25 22:50 | 51.64537 | 9.14098 | 30852 ft | 410 kts | 191° |
| 2026-04-25 22:50 | 51.61711 | 9.13488 | 31044 ft | 409 kts | 191° |
| 2026-04-25 22:50 | 51.58888 | 9.12879 | 31266 ft | 409 kts | 191° |
| 2026-04-25 22:51 | 51.56069 | 9.12273 | 31472 ft | 408 kts | 191° |
| 2026-04-25 22:51 | 51.53255 | 9.11669 | 31668 ft | 408 kts | 191° |
| 2026-04-25 22:51 | 51.50446 | 9.11040 | 31861 ft | 407 kts | 193° |
| 2026-04-25 22:51 | 51.47667 | 9.10244 | 32055 ft | 405 kts | 195° |
| 2026-04-25 22:52 | 51.44909 | 9.09327 | 32220 ft | 404 kts | 196° |
| 2026-04-25 22:52 | 51.42168 | 9.08361 | 32438 ft | 403 kts | 196° |
| 2026-04-25 22:52 | 51.39472 | 9.07397 | 32627 ft | 402 kts | 196° |
| 2026-04-25 22:52 | 51.36742 | 9.06428 | 32787 ft | 402 kts | 196° |
| 2026-04-25 22:53 | 51.34010 | 9.05472 | 32969 ft | 402 kts | 196° |
| 2026-04-25 22:53 | 51.31238 | 9.04550 | 33103 ft | 402 kts | 194° |
| 2026-04-25 22:53 | 51.28473 | 9.03834 | 33268 ft | 403 kts | 191° |
| 2026-04-25 22:53 | 51.25691 | 9.03252 | 33420 ft | 403 kts | 190° |
| 2026-04-25 22:54 | 51.22903 | 9.02732 | 33564 ft | 403 kts | 189° |
| 2026-04-25 22:54 | 51.20122 | 9.02229 | 33735 ft | 401 kts | 189° |
| 2026-04-25 22:54 | 51.17361 | 9.01724 | 33916 ft | 399 kts | 190° |
| 2026-04-25 22:54 | 51.14600 | 9.01204 | 34072 ft | 399 kts | 190° |
| 2026-04-25 22:55 | 51.09069 | 9.00125 | 34166 ft | 403 kts | 190° |
| 2026-04-25 22:55 | 51.03458 | 8.99007 | 34164 ft | 410 kts | 190° |
| 2026-04-25 22:56 | 50.97798 | 8.97882 | 34159 ft | 415 kts | 190° |
| 2026-04-25 22:56 | 50.92082 | 8.96755 | 34166 ft | 413 kts | 190° |
| 2026-04-25 22:57 | 50.86391 | 8.95636 | 34168 ft | 412 kts | 190° |
| 2026-04-25 22:57 | 50.80700 | 8.94518 | 34170 ft | 412 kts | 190° |
| 2026-04-25 22:58 | 50.75010 | 8.93403 | 34170 ft | 412 kts | 190° |
| 2026-04-25 22:58 | 50.69323 | 8.92290 | 34166 ft | 412 kts | 190° |
| 2026-04-25 22:59 | 50.63635 | 8.91181 | 34167 ft | 412 kts | 190° |
| 2026-04-25 22:59 | 50.57948 | 8.90075 | 34165 ft | 412 kts | 190° |
| 2026-04-25 23:00 | 50.52260 | 8.88968 | 34158 ft | 412 kts | 191° |
| 2026-04-25 23:00 | 50.46579 | 8.87868 | 34166 ft | 411 kts | 191° |
| 2026-04-25 23:01 | 50.40900 | 8.86774 | 34160 ft | 411 kts | 190° |
| 2026-04-25 23:01 | 50.35228 | 8.85681 | 34165 ft | 411 kts | 190° |
| 2026-04-25 23:02 | 50.29557 | 8.84591 | 34159 ft | 410 kts | 191° |
| 2026-04-25 23:02 | 50.23902 | 8.83507 | 34175 ft | 409 kts | 191° |
| 2026-04-25 23:03 | 50.18255 | 8.82427 | 34175 ft | 409 kts | 191° |
| 2026-04-25 23:03 | 50.12609 | 8.81349 | 34176 ft | 409 kts | 191° |
| 2026-04-25 23:04 | 50.06966 | 8.80274 | 33482 ft | 409 kts | 191° |
| 2026-04-25 23:04 | 50.04203 | 8.79735 | 33213 ft | 402 kts | 191° |
| 2026-04-25 23:04 | 50.01440 | 8.79173 | 33180 ft | 400 kts | 191° |
| 2026-04-25 23:05 | 49.95916 | 8.78015 | 33178 ft | 401 kts | 192° |
| 2026-04-25 23:05 | 49.90353 | 8.76847 | 33165 ft | 401 kts | 191° |
| 2026-04-25 23:06 | 49.84836 | 8.75699 | 33157 ft | 404 kts | 192° |
| 2026-04-25 23:06 | 49.79251 | 8.74545 | 33168 ft | 405 kts | 192° |
| 2026-04-25 23:07 | 49.73660 | 8.73395 | 33171 ft | 405 kts | 192° |
| 2026-04-25 23:07 | 49.68069 | 8.72250 | 33178 ft | 405 kts | 192° |
| 2026-04-25 23:08 | 49.62481 | 8.71121 | 33172 ft | 405 kts | 192° |
| 2026-04-25 23:08 | 49.56886 | 8.69994 | 33179 ft | 405 kts | 192° |
| 2026-04-25 23:09 | 49.51298 | 8.68872 | 33181 ft | 405 kts | 192° |
| 2026-04-25 23:09 | 49.45705 | 8.67750 | 33185 ft | 405 kts | 192° |
| 2026-04-25 23:10 | 49.40117 | 8.66620 | 33179 ft | 405 kts | 192° |
| 2026-04-25 23:10 | 49.34534 | 8.65491 | 33181 ft | 404 kts | 192° |
| 2026-04-25 23:11 | 49.28964 | 8.64365 | 33179 ft | 404 kts | 192° |
| 2026-04-25 23:11 | 49.23392 | 8.63243 | 33177 ft | 404 kts | 192° |
| 2026-04-25 23:12 | 49.17822 | 8.62125 | 33170 ft | 404 kts | 191° |
| 2026-04-25 23:12 | 49.12293 | 8.61017 | 33173 ft | 403 kts | 191° |
| 2026-04-25 23:13 | 49.06730 | 8.59906 | 33173 ft | 403 kts | 191° |
| 2026-04-25 23:13 | 49.01168 | 8.58797 | 33175 ft | 403 kts | 191° |
| 2026-04-25 23:14 | 48.95650 | 8.57394 | 33175 ft | 401 kts | 195° |
| 2026-04-25 23:14 | 48.90212 | 8.55594 | 33175 ft | 400 kts | 197° |
| 2026-04-25 23:15 | 48.84787 | 8.53757 | 33176 ft | 400 kts | 196° |
| 2026-04-25 23:15 | 48.79351 | 8.51968 | 33173 ft | 400 kts | 196° |
| 2026-04-25 23:16 | 48.73903 | 8.50208 | 33182 ft | 400 kts | 195° |
| 2026-04-25 23:16 | 48.68454 | 8.48462 | 33176 ft | 400 kts | 195° |
| 2026-04-25 23:17 | 48.63005 | 8.46719 | 33172 ft | 400 kts | 195° |
| 2026-04-25 23:17 | 48.57553 | 8.44977 | 33178 ft | 400 kts | 195° |
| 2026-04-25 23:18 | 48.52104 | 8.43237 | 33179 ft | 400 kts | 195° |
| 2026-04-25 23:18 | 48.46656 | 8.41503 | 33170 ft | 400 kts | 195° |
| 2026-04-25 23:19 | 48.41205 | 8.39771 | 33176 ft | 400 kts | 195° |
| 2026-04-25 23:19 | 48.35752 | 8.38043 | 33176 ft | 400 kts | 195° |
| 2026-04-25 23:20 | 48.30309 | 8.36322 | 33164 ft | 399 kts | 195° |
| 2026-04-25 23:20 | 48.24868 | 8.34606 | 33174 ft | 399 kts | 195° |
| 2026-04-25 23:21 | 48.19447 | 8.32821 | 33167 ft | 397 kts | 200° |
| 2026-04-25 23:21 | 48.14437 | 8.29580 | 33181 ft | 390 kts | 214° |
| 2026-04-25 23:22 | 48.09850 | 8.25355 | 33183 ft | 389 kts | 216° |
| 2026-04-25 23:23 | 48.03060 | 8.18720 | 33180 ft | 389 kts | 217° |
| 2026-04-25 23:23 | 47.98522 | 8.14319 | 33175 ft | 389 kts | 216° |
| 2026-04-25 23:24 | 47.93974 | 8.09949 | 33179 ft | 389 kts | 216° |
| 2026-04-25 23:24 | 47.89421 | 8.05595 | 33179 ft | 389 kts | 216° |
| 2026-04-25 23:25 | 47.84869 | 8.01251 | 33179 ft | 388 kts | 216° |
| 2026-04-25 23:25 | 47.80317 | 7.96917 | 33182 ft | 388 kts | 216° |
| 2026-04-25 23:26 | 47.75765 | 7.92589 | 33170 ft | 388 kts | 216° |
| 2026-04-25 23:26 | 47.71213 | 7.88269 | 33167 ft | 388 kts | 216° |
| 2026-04-25 23:27 | 47.66659 | 7.83956 | 33164 ft | 388 kts | 216° |
| 2026-04-25 23:27 | 47.62101 | 7.79650 | 33162 ft | 388 kts | 216° |
| 2026-04-25 23:28 | 47.57547 | 7.75356 | 33161 ft | 388 kts | 216° |
| 2026-04-25 23:28 | 47.52987 | 7.71067 | 33153 ft | 388 kts | 216° |
| 2026-04-25 23:29 | 47.48433 | 7.66791 | 33157 ft | 388 kts | 216° |
| 2026-04-25 23:29 | 47.43877 | 7.62522 | 33158 ft | 388 kts | 215° |
| 2026-04-25 23:30 | 47.39321 | 7.58262 | 33157 ft | 388 kts | 215° |
| 2026-04-25 23:30 | 47.34763 | 7.54011 | 33157 ft | 388 kts | 215° |
| 2026-04-25 23:31 | 47.25627 | 7.45513 | 33171 ft | 388 kts | 215° |
| 2026-04-25 23:31 | 47.10106 | 7.24857 | 33172 ft | 379 kts | 227° |
| 2026-04-25 23:31 | 47.04277 | 7.14708 | 33188 ft | 374 kts | 245° |
| 2026-04-25 23:32 | 47.02942 | 7.11429 | 33194 ft | 376 kts | 237° |
| 2026-04-25 23:32 | 46.85044 | 6.79518 | 33154 ft | 376 kts | 234° |
| 2026-04-25 23:33 | 46.58590 | 6.32105 | 33147 ft | 377 kts | 232° |
| 2026-04-25 23:33 | 46.31913 | 5.85154 | 33155 ft | 378 kts | 232° |
| 2026-04-25 23:34 | 46.06147 | 5.37421 | 33141 ft | 374 kts | 239° |
| 2026-04-25 23:34 | 45.82380 | 4.88402 | 33138 ft | 371 kts | 237° |
| 2026-04-25 23:35 | 45.58514 | 4.40107 | 33183 ft | 372 kts | 236° |
| 2026-04-25 23:35 | 45.34435 | 3.92138 | 33173 ft | 372 kts | 236° |
| 2026-04-25 23:36 | 45.30135 | 3.83667 | 33174 ft | 370 kts | 236° |
| 2026-04-25 23:36 | 45.27127 | 3.77765 | 33171 ft | 368 kts | 236° |
| 2026-04-25 23:37 | 45.24649 | 3.72855 | 33171 ft | 368 kts | 237° |
| 2026-04-25 23:37 | 45.21721 | 3.66913 | 33171 ft | 368 kts | 237° |
| 2026-04-25 23:38 | 45.18800 | 3.60960 | 33176 ft | 368 kts | 237° |
| 2026-04-25 23:38 | 45.15932 | 3.54971 | 33168 ft | 366 kts | 244° |
| 2026-04-25 23:38 | 45.15063 | 3.51606 | 33176 ft | 363 kts | 258° |
| 2026-04-25 23:39 | 45.14629 | 3.48086 | 33172 ft | 363 kts | 262° |
| 2026-04-25 23:39 | 45.13885 | 3.40990 | 33161 ft | 364 kts | 257° |
| 2026-04-25 23:39 | 45.12991 | 3.37647 | 33165 ft | 365 kts | 242° |
| 2026-04-25 23:40 | 45.11632 | 3.34615 | 33167 ft | 365 kts | 238° |
| 2026-04-25 23:40 | 45.08213 | 3.27687 | 33172 ft | 367 kts | 237° |
| 2026-04-25 23:41 | 44.99140 | 3.09421 | 33183 ft | 367 kts | 237° |
| 2026-04-25 23:41 | 44.96171 | 3.03556 | 33183 ft | 366 kts | 237° |
| 2026-04-25 23:42 | 44.93214 | 2.97729 | 33185 ft | 364 kts | 237° |
| 2026-04-25 23:42 | 44.90285 | 2.91967 | 32878 ft | 357 kts | 237° |
| 2026-04-25 23:42 | 44.88838 | 2.89121 | 32621 ft | 357 kts | 237° |
| 2026-04-25 23:43 | 44.87387 | 2.86272 | 32356 ft | 358 kts | 236° |
| 2026-04-25 23:43 | 44.85931 | 2.83415 | 32104 ft | 360 kts | 236° |
| 2026-04-25 23:43 | 44.84471 | 2.80553 | 31847 ft | 361 kts | 236° |
| 2026-04-25 23:43 | 44.83003 | 2.77678 | 31604 ft | 362 kts | 236° |
| 2026-04-25 23:44 | 44.81549 | 2.74835 | 31342 ft | 363 kts | 236° |
| 2026-04-25 23:44 | 44.80072 | 2.71948 | 31095 ft | 364 kts | 236° |
| 2026-04-25 23:44 | 44.78589 | 2.69054 | 30848 ft | 365 kts | 236° |
| 2026-04-25 23:44 | 44.77101 | 2.66152 | 30611 ft | 366 kts | 236° |
| 2026-04-25 23:45 | 44.75613 | 2.63253 | 30367 ft | 365 kts | 235° |
| 2026-04-25 23:45 | 44.74127 | 2.60361 | 30111 ft | 364 kts | 235° |
| 2026-04-25 23:45 | 44.72641 | 2.57473 | 29822 ft | 365 kts | 235° |
| 2026-04-25 23:45 | 44.71150 | 2.54578 | 29533 ft | 366 kts | 235° |
| 2026-04-25 23:46 | 44.69655 | 2.51676 | 29246 ft | 367 kts | 235° |
| 2026-04-25 23:46 | 44.68153 | 2.48766 | 28979 ft | 368 kts | 235° |
| 2026-04-25 23:46 | 44.66648 | 2.45853 | 28718 ft | 369 kts | 235° |
| 2026-04-25 23:46 | 44.65138 | 2.42934 | 28442 ft | 370 kts | 235° |
| 2026-04-25 23:47 | 44.63637 | 2.40032 | 28116 ft | 364 kts | 235° |
| 2026-04-25 23:47 | 44.62158 | 2.37178 | 27655 ft | 360 kts | 235° |
| 2026-04-25 23:47 | 44.60690 | 2.34347 | 27144 ft | 358 kts | 234° |
| 2026-04-25 23:47 | 44.59231 | 2.31535 | 26644 ft | 355 kts | 234° |
| 2026-04-25 23:48 | 44.57778 | 2.28738 | 26146 ft | 354 kts | 234° |
| 2026-04-25 23:48 | 44.56329 | 2.25953 | 25619 ft | 354 kts | 234° |
| 2026-04-25 23:48 | 44.54876 | 2.23161 | 25088 ft | 355 kts | 234° |
| 2026-04-25 23:48 | 44.53416 | 2.20360 | 24554 ft | 357 kts | 234° |
| 2026-04-25 23:49 | 44.51947 | 2.17542 | 23999 ft | 360 kts | 234° |
| 2026-04-25 23:49 | 44.50467 | 2.14708 | 23444 ft | 359 kts | 234° |
| 2026-04-25 23:49 | 44.48997 | 2.11894 | 23086 ft | 357 kts | 234° |
| 2026-04-25 23:49 | 44.47530 | 2.09090 | 22708 ft | 356 kts | 234° |
| 2026-04-25 23:50 | 44.46069 | 2.06301 | 22327 ft | 355 kts | 234° |
| 2026-04-25 23:50 | 44.44612 | 2.03521 | 21953 ft | 353 kts | 234° |
| 2026-04-25 23:50 | 44.43164 | 2.00760 | 21575 ft | 352 kts | 234° |
| 2026-04-25 23:50 | 44.41719 | 1.98008 | 21181 ft | 350 kts | 234° |
| 2026-04-25 23:51 | 44.40279 | 1.95269 | 20804 ft | 349 kts | 234° |
| 2026-04-25 23:51 | 44.38844 | 1.92542 | 20418 ft | 348 kts | 234° |
| 2026-04-25 23:51 | 44.37412 | 1.89823 | 20030 ft | 347 kts | 234° |
| 2026-04-25 23:51 | 44.35985 | 1.87115 | 19659 ft | 345 kts | 234° |
| 2026-04-25 23:52 | 44.34559 | 1.84413 | 19305 ft | 349 kts | 234° |
| 2026-04-25 23:52 | 44.33090 | 1.81629 | 18950 ft | 361 kts | 234° |
| 2026-04-25 23:52 | 44.31579 | 1.78768 | 17913 ft | 372 kts | 234° |
| 2026-04-25 23:52 | 44.29994 | 1.75897 | 17195 ft | 372 kts | 229° |
| 2026-04-25 23:53 | 44.28101 | 1.73526 | 16855 ft | 361 kts | 218° |
| 2026-04-25 23:53 | 44.26078 | 1.71515 | 16356 ft | 354 kts | 216° |
| 2026-04-25 23:53 | 44.24049 | 1.69588 | 15764 ft | 351 kts | 215° |
| 2026-04-25 23:53 | 44.22038 | 1.67684 | 15195 ft | 348 kts | 215° |
| 2026-04-25 23:54 | 44.20049 | 1.65795 | 14644 ft | 345 kts | 216° |
| 2026-04-25 23:54 | 44.18076 | 1.63918 | 14082 ft | 342 kts | 216° |
| 2026-04-25 23:54 | 44.16125 | 1.62059 | 13453 ft | 339 kts | 216° |
| 2026-04-25 23:54 | 44.14187 | 1.60212 | 12840 ft | 336 kts | 216° |
| 2026-04-25 23:55 | 44.12264 | 1.58380 | 12231 ft | 333 kts | 216° |
| 2026-04-25 23:55 | 44.10386 | 1.56591 | 11650 ft | 330 kts | 215° |
| 2026-04-25 23:55 | 44.08496 | 1.54793 | 11079 ft | 328 kts | 215° |
| 2026-04-25 23:55 | 44.06624 | 1.53012 | 10477 ft | 324 kts | 215° |
| 2026-04-25 23:56 | 44.04786 | 1.51264 | 9790 ft | 315 kts | 215° |
| 2026-04-25 23:56 | 44.03035 | 1.49602 | 9402 ft | 295 kts | 215° |
| 2026-04-25 23:56 | 44.01371 | 1.48024 | 8819 ft | 286 kts | 214° |
| 2026-04-25 23:56 | 43.99747 | 1.46484 | 8364 ft | 281 kts | 214° |
| 2026-04-25 23:57 | 43.98035 | 1.45176 | 8201 ft | 282 kts | 201° |
| 2026-04-25 23:57 | 43.96138 | 1.44451 | 8202 ft | 283 kts | 192° |
| 2026-04-25 23:57 | 43.94204 | 1.43962 | 8209 ft | 282 kts | 190° |
| 2026-04-25 23:57 | 43.92265 | 1.43512 | 8205 ft | 282 kts | 190° |
| 2026-04-25 23:58 | 43.90331 | 1.43064 | 8206 ft | 282 kts | 189° |
| 2026-04-25 23:58 | 43.88395 | 1.42610 | 8210 ft | 282 kts | 190° |
| 2026-04-25 23:58 | 43.86458 | 1.42153 | 8206 ft | 282 kts | 190° |
| 2026-04-25 23:58 | 43.84515 | 1.41760 | 8207 ft | 282 kts | 184° |
| 2026-04-25 23:59 | 43.82571 | 1.42018 | 8206 ft | 282 kts | 163° |
| 2026-04-25 23:59 | 43.80822 | 1.43229 | 8224 ft | 283 kts | 146° |
| 2026-04-25 23:59 | 43.79244 | 1.44862 | 8208 ft | 284 kts | 142° |
| 2026-04-25 23:59 | 43.77698 | 1.46559 | 8208 ft | 284 kts | 142° |
| 2026-04-26 00:00 | 43.76154 | 1.48256 | 8204 ft | 284 kts | 142° |
| 2026-04-26 00:00 | 43.74603 | 1.49947 | 8222 ft | 284 kts | 142° |
| 2026-04-26 00:00 | 43.73049 | 1.51631 | 8204 ft | 284 kts | 142° |
| 2026-04-26 00:00 | 43.71496 | 1.53306 | 8049 ft | 284 kts | 142° |
| 2026-04-26 00:01 | 43.69924 | 1.54998 | 7574 ft | 285 kts | 142° |
| 2026-04-26 00:01 | 43.68370 | 1.56670 | 7397 ft | 283 kts | 142° |
| 2026-04-26 00:01 | 43.66831 | 1.58322 | 7104 ft | 279 kts | 142° |
| 2026-04-26 00:01 | 43.65318 | 1.59943 | 6795 ft | 271 kts | 141° |
| 2026-04-26 00:02 | 43.63854 | 1.61512 | 6494 ft | 262 kts | 142° |
| 2026-04-26 00:02 | 43.62341 | 1.62816 | 6228 ft | 253 kts | 157° |
| 2026-04-26 00:02 | 43.60653 | 1.63295 | 5940 ft | 246 kts | 180° |
| 2026-04-26 00:02 | 43.58953 | 1.63141 | 5561 ft | 244 kts | 187° |
| 2026-04-26 00:03 | 43.57299 | 1.62854 | 5193 ft | 242 kts | 188° |
| 2026-04-26 00:03 | 43.55640 | 1.62553 | 4859 ft | 238 kts | 188° |
| 2026-04-26 00:03 | 43.54027 | 1.62268 | 4492 ft | 230 kts | 188° |
| 2026-04-26 00:03 | 43.52446 | 1.61996 | 4135 ft | 228 kts | 188° |
| 2026-04-26 00:04 | 43.50868 | 1.61724 | 4007 ft | 229 kts | 189° |
| 2026-04-26 00:04 | 43.49354 | 1.61120 | 3993 ft | 227 kts | 208° |
| 2026-04-26 00:04 | 43.48187 | 1.59717 | 4006 ft | 223 kts | 237° |
| 2026-04-26 00:04 | 43.47591 | 1.57767 | 4004 ft | 221 kts | 256° |
| 2026-04-26 00:05 | 43.47247 | 1.55706 | 4004 ft | 221 kts | 261° |
| 2026-04-26 00:05 | 43.47322 | 1.53651 | 3999 ft | 210 kts | 292° |
| 2026-04-26 00:05 | 43.47989 | 1.51984 | 3950 ft | 191 kts | 306° |
| 2026-04-26 00:05 | 43.48894 | 1.50712 | 3758 ft | 182 kts | 321° |
| 2026-04-26 00:06 | 43.49900 | 1.49678 | 3491 ft | 179 kts | 324° |
| 2026-04-26 00:06 | 43.50885 | 1.48666 | 3216 ft | 175 kts | 323° |
| 2026-04-26 00:06 | 43.51840 | 1.47667 | 2981 ft | 170 kts | 323° |
| 2026-04-26 00:06 | 43.52769 | 1.46700 | 2767 ft | 164 kts | 323° |
| 2026-04-26 00:07 | 43.53645 | 1.45791 | 2536 ft | 151 kts | 323° |
| 2026-04-26 00:07 | 43.54462 | 1.44942 | 2369 ft | 144 kts | 323° |
| 2026-04-26 00:07 | 43.55261 | 1.44111 | 2164 ft | 144 kts | 323° |
| 2026-04-26 00:07 | 43.56066 | 1.43274 | 1967 ft | 145 kts | 323° |
| 2026-04-26 00:08 | 43.56871 | 1.42436 | 1764 ft | 145 kts | 323° |
| 2026-04-26 00:08 | 43.57677 | 1.41598 | 1572 ft | 145 kts | 323° |
| 2026-04-26 00:08 | 43.58469 | 1.40774 | 1374 ft | 145 kts | 323° |
| 2026-04-26 00:08 | 43.59269 | 1.39938 | 1175 ft | 144 kts | 322° |
| 2026-04-26 00:09 | 43.60068 | 1.39107 | 964 ft | 143 kts | 322° |
| 2026-04-26 00:09 | 43.60864 | 1.38280 | 786 ft | 143 kts | 323° |
| 2026-04-26 00:09 | 43.61665 | 1.37454 | 585 ft | 143 kts | 322° |
| 2026-04-26 00:09 | 43.62434 | 1.36651 | 489 ft | 123 kts | 323° |
| 2026-04-26 00:10 | 43.62959 | 1.36107 | 485 ft | 66 kts | 323° |
| 2026-04-26 00:10 | 43.63176 | 1.35879 | 487 ft | 24 kts | 322° |
| 2026-04-26 00:10 | 43.63313 | 1.35735 | 499 ft | 26 kts | 323° |
| 2026-04-26 00:10 | 43.63458 | 1.35584 | 487 ft | 27 kts | 323° |
| 2026-04-26 00:11 | 43.63525 | 1.35513 | 487 ft | 7 kts | 316° |
| 2026-04-26 00:11 | 43.63538 | 1.35440 | 489 ft | 9 kts | 262° |
| 2026-04-26 00:11 | 43.63502 | 1.35356 | 487 ft | 11 kts | 233° |
| 2026-04-26 00:11 | 43.63444 | 1.35303 | 499 ft | 8 kts | 177° |
| 2026-04-26 00:12 | 43.63392 | 1.35342 | 499 ft | 10 kts | 145° |
| 2026-04-26 00:12 | 43.63326 | 1.35410 | 499 ft | 13 kts | 142° |
| 2026-04-26 00:12 | 43.63244 | 1.35497 | 499 ft | 16 kts | 142° |
| 2026-04-26 00:12 | 43.63145 | 1.35599 | 499 ft | 19 kts | 143° |
| 2026-04-26 00:13 | 43.63031 | 1.35718 | 489 ft | 22 kts | 143° |
| 2026-04-26 00:13 | 43.62902 | 1.35852 | 488 ft | 25 kts | 143° |
| 2026-04-26 00:13 | 43.62758 | 1.36001 | 487 ft | 27 kts | 143° |
| 2026-04-26 00:13 | 43.62624 | 1.36141 | 489 ft | 25 kts | 143° |
| 2026-04-26 00:14 | 43.62479 | 1.36293 | 490 ft | 27 kts | 143° |
| 2026-04-26 00:14 | 43.62390 | 1.36385 | 487 ft | 12 kts | 142° |
| 2026-04-26 00:14 | 43.62351 | 1.36425 | 487 ft | 7 kts | 143° |
| 2026-04-26 00:14 | 43.62300 | 1.36478 | 487 ft | 11 kts | 143° |
| 2026-04-26 00:15 | 43.62230 | 1.36551 | 487 ft | 14 kts | 143° |
| 2026-04-26 00:15 | 43.62127 | 1.36596 | 496 ft | 17 kts | 178° |
| 2026-04-26 00:15 | 43.62000 | 1.36594 | 498 ft | 20 kts | 182° |
| 2026-04-26 00:15 | 43.61863 | 1.36584 | 490 ft | 16 kts | 183° |
| 2026-04-26 00:16 | 43.61773 | 1.36583 | 489 ft | 14 kts | 172° |
| 2026-04-26 00:16 | 43.61669 | 1.36627 | 490 ft | 17 kts | 161° |
| 2026-04-26 00:16 | 43.61548 | 1.36621 | 493 ft | 19 kts | 204° |
| 2026-04-26 00:16 | 43.61506 | 1.36564 | 489 ft | 1 kts | 251° |
| 2026-04-26 00:17 | 43.61503 | 1.36543 | 493 ft | 3 kts | 263° |
| 2026-04-26 00:17 | 43.61499 | 1.36499 | 498 ft | 6 kts | 263° |
| 2026-04-26 00:17 | 43.61497 | 1.36473 | 496 ft | 0 kts | 263° |